sensor_id;sensor_type;location;lat;lon;timestamp;P1;durP1;ratioP1;P2;durP2;ratioP2
7158;SDS011;63175;52.374;13.132;2023-11-19T00:01:01;4.80;;;4.50;;
7158;SDS011;63175;52.374;13.132;2023-11-19T00:03:30;6.17;;;4.83;;
7158;SDS011;63175;52.374;13.132;2023-11-19T00:05:58;5.20;;;4.70;;
7158;SDS011;63175;52.374;13.132;2023-11-19T00:08:25;5.70;;;4.60;;
7158;SDS011;63175;52.374;13.132;2023-11-19T00:10:52;5.10;;;4.60;;
7158;SDS011;63175;52.374;13.132;2023-11-19T00:13:20;5.30;;;4.80;;
7158;SDS011;63175;52.374;13.132;2023-11-19T00:15:48;5.20;;;4.80;;
7158;SDS011;63175;52.374;13.132;2023-11-19T00:18:15;5.27;;;4.80;;
7158;SDS011;63175;52.374;13.132;2023-11-19T00:20:41;5.10;;;4.60;;
7158;SDS011;63175;52.374;13.132;2023-11-19T00:23:09;5.30;;;4.80;;
7158;SDS011;63175;52.374;13.132;2023-11-19T00:25:36;6.53;;;5.40;;
7158;SDS011;63175;52.374;13.132;2023-11-19T00:28:04;6.13;;;5.07;;
7158;SDS011;63175;52.374;13.132;2023-11-19T00:30:32;6.33;;;4.90;;
7158;SDS011;63175;52.374;13.132;2023-11-19T00:32:59;4.80;;;4.40;;
7158;SDS011;63175;52.374;13.132;2023-11-19T00:35:26;7.23;;;4.80;;
7158;SDS011;63175;52.374;13.132;2023-11-19T00:37:53;4.30;;;4.00;;
7158;SDS011;63175;52.374;13.132;2023-11-19T00:40:20;4.03;;;3.73;;
7158;SDS011;63175;52.374;13.132;2023-11-19T00:42:48;5.03;;;4.40;;
7158;SDS011;63175;52.374;13.132;2023-11-19T00:45:15;6.47;;;5.40;;
7158;SDS011;63175;52.374;13.132;2023-11-19T00:47:43;7.57;;;4.87;;
7158;SDS011;63175;52.374;13.132;2023-11-19T00:50:10;4.77;;;4.37;;
7158;SDS011;63175;52.374;13.132;2023-11-19T00:52:38;3.93;;;3.63;;
7158;SDS011;63175;52.374;13.132;2023-11-19T00:55:05;7.13;;;4.73;;
7158;SDS011;63175;52.374;13.132;2023-11-19T00:57:32;4.23;;;3.90;;
7158;SDS011;63175;52.374;13.132;2023-11-19T01:00:00;5.00;;;4.23;;
7158;SDS011;63175;52.374;13.132;2023-11-19T01:02:28;4.87;;;4.47;;
7158;SDS011;63175;52.374;13.132;2023-11-19T01:04:56;5.33;;;4.90;;
7158;SDS011;63175;52.374;13.132;2023-11-19T01:07:23;4.80;;;4.40;;
7158;SDS011;63175;52.374;13.132;2023-11-19T01:09:51;4.93;;;4.13;;
7158;SDS011;63175;52.374;13.132;2023-11-19T01:12:19;6.00;;;4.80;;
7158;SDS011;63175;52.374;13.132;2023-11-19T01:14:46;7.30;;;5.47;;
7158;SDS011;63175;52.374;13.132;2023-11-19T01:17:12;5.03;;;4.53;;
7158;SDS011;63175;52.374;13.132;2023-11-19T01:19:39;6.13;;;4.10;;
7158;SDS011;63175;52.374;13.132;2023-11-19T01:22:07;5.67;;;5.10;;
7158;SDS011;63175;52.374;13.132;2023-11-19T01:24:34;5.30;;;4.80;;
7158;SDS011;63175;52.374;13.132;2023-11-19T01:27:01;6.60;;;4.80;;
7158;SDS011;63175;52.374;13.132;2023-11-19T01:29:28;5.10;;;4.60;;
7158;SDS011;63175;52.374;13.132;2023-11-19T01:31:55;5.50;;;4.97;;
7158;SDS011;63175;52.374;13.132;2023-11-19T01:34:22;6.07;;;5.53;;
7158;SDS011;63175;52.374;13.132;2023-11-19T01:36:49;5.40;;;4.90;;
7158;SDS011;63175;52.374;13.132;2023-11-19T01:39:17;7.33;;;4.97;;
7158;SDS011;63175;52.374;13.132;2023-11-19T01:41:45;5.60;;;5.10;;
7158;SDS011;63175;52.374;13.132;2023-11-19T01:44:11;6.43;;;5.60;;
7158;SDS011;63175;52.374;13.132;2023-11-19T01:46:40;6.87;;;5.30;;
7158;SDS011;63175;52.374;13.132;2023-11-19T01:49:08;5.43;;;4.93;;
7158;SDS011;63175;52.374;13.132;2023-11-19T01:51:36;6.93;;;5.20;;
7158;SDS011;63175;52.374;13.132;2023-11-19T01:54:05;6.90;;;5.10;;
7158;SDS011;63175;52.374;13.132;2023-11-19T01:56:34;5.37;;;4.87;;
7158;SDS011;63175;52.374;13.132;2023-11-19T01:59:02;4.30;;;3.90;;
7158;SDS011;63175;52.374;13.132;2023-11-19T02:01:30;5.83;;;5.37;;
7158;SDS011;63175;52.374;13.132;2023-11-19T02:03:59;4.97;;;4.57;;
7158;SDS011;63175;52.374;13.132;2023-11-19T02:06:27;6.57;;;5.73;;
7158;SDS011;63175;52.374;13.132;2023-11-19T02:08:55;4.77;;;4.37;;
7158;SDS011;63175;52.374;13.132;2023-11-19T02:11:21;5.63;;;5.00;;
7158;SDS011;63175;52.374;13.132;2023-11-19T02:13:50;4.80;;;3.97;;
7158;SDS011;63175;52.374;13.132;2023-11-19T02:16:17;5.20;;;4.50;;
7158;SDS011;63175;52.374;13.132;2023-11-19T02:18:44;7.40;;;5.20;;
7158;SDS011;63175;52.374;13.132;2023-11-19T02:21:10;4.70;;;4.30;;
7158;SDS011;63175;52.374;13.132;2023-11-19T02:23:40;6.97;;;3.93;;
7158;SDS011;63175;52.374;13.132;2023-11-19T02:26:10;5.60;;;4.00;;
7158;SDS011;63175;52.374;13.132;2023-11-19T02:28:44;5.00;;;4.40;;
7158;SDS011;63175;52.374;13.132;2023-11-19T02:31:11;5.40;;;4.20;;
7158;SDS011;63175;52.374;13.132;2023-11-19T02:33:39;4.50;;;4.10;;
7158;SDS011;63175;52.374;13.132;2023-11-19T02:36:06;5.83;;;3.80;;
7158;SDS011;63175;52.374;13.132;2023-11-19T02:38:34;4.93;;;4.17;;
7158;SDS011;63175;52.374;13.132;2023-11-19T02:41:02;4.20;;;3.90;;
7158;SDS011;63175;52.374;13.132;2023-11-19T02:43:30;4.20;;;3.77;;
7158;SDS011;63175;52.374;13.132;2023-11-19T02:45:59;4.37;;;3.97;;
7158;SDS011;63175;52.374;13.132;2023-11-19T02:48:27;4.53;;;4.13;;
7158;SDS011;63175;52.374;13.132;2023-11-19T02:50:53;5.23;;;3.60;;
7158;SDS011;63175;52.374;13.132;2023-11-19T02:53:23;3.30;;;3.10;;
7158;SDS011;63175;52.374;13.132;2023-11-19T02:55:52;5.20;;;3.90;;
7158;SDS011;63175;52.374;13.132;2023-11-19T02:58:26;5.70;;;4.07;;
7158;SDS011;63175;52.374;13.132;2023-11-19T03:00:53;3.30;;;3.10;;
7158;SDS011;63175;52.374;13.132;2023-11-19T03:03:26;4.40;;;3.63;;
7158;SDS011;63175;52.374;13.132;2023-11-19T03:06:03;3.10;;;2.90;;
7158;SDS011;63175;52.374;13.132;2023-11-19T03:08:31;6.03;;;3.30;;
7158;SDS011;63175;52.374;13.132;2023-11-19T03:10:58;8.30;;;3.10;;
7158;SDS011;63175;52.374;13.132;2023-11-19T03:13:25;3.30;;;3.03;;
7158;SDS011;63175;52.374;13.132;2023-11-19T03:15:52;2.87;;;2.63;;
7158;SDS011;63175;52.374;13.132;2023-11-19T03:18:19;3.77;;;3.50;;
7158;SDS011;63175;52.374;13.132;2023-11-19T03:20:47;3.40;;;3.10;;
7158;SDS011;63175;52.374;13.132;2023-11-19T03:23:14;4.73;;;3.20;;
7158;SDS011;63175;52.374;13.132;2023-11-19T03:25:41;3.07;;;2.87;;
7158;SDS011;63175;52.374;13.132;2023-11-19T03:28:08;3.87;;;3.13;;
7158;SDS011;63175;52.374;13.132;2023-11-19T03:30:36;3.27;;;3.07;;
7158;SDS011;63175;52.374;13.132;2023-11-19T03:33:03;3.17;;;2.97;;
7158;SDS011;63175;52.374;13.132;2023-11-19T03:35:30;3.30;;;2.83;;
7158;SDS011;63175;52.374;13.132;2023-11-19T03:37:59;3.60;;;3.30;;
7158;SDS011;63175;52.374;13.132;2023-11-19T03:40:27;3.50;;;3.20;;
7158;SDS011;63175;52.374;13.132;2023-11-19T03:42:55;3.57;;;3.13;;
7158;SDS011;63175;52.374;13.132;2023-11-19T03:45:22;3.70;;;3.30;;
7158;SDS011;63175;52.374;13.132;2023-11-19T03:47:49;4.10;;;3.80;;
7158;SDS011;63175;52.374;13.132;2023-11-19T03:50:16;3.33;;;3.13;;
7158;SDS011;63175;52.374;13.132;2023-11-19T03:52:45;3.90;;;3.20;;
7158;SDS011;63175;52.374;13.132;2023-11-19T03:55:13;4.70;;;3.00;;
7158;SDS011;63175;52.374;13.132;2023-11-19T03:57:40;3.40;;;3.10;;
7158;SDS011;63175;52.374;13.132;2023-11-19T04:00:07;4.10;;;3.27;;
7158;SDS011;63175;52.374;13.132;2023-11-19T04:02:35;3.70;;;3.40;;
7158;SDS011;63175;52.374;13.132;2023-11-19T04:05:02;3.00;;;2.83;;
7158;SDS011;63175;52.374;13.132;2023-11-19T04:07:30;3.90;;;3.50;;
7158;SDS011;63175;52.374;13.132;2023-11-19T04:09:56;4.17;;;3.70;;
7158;SDS011;63175;52.374;13.132;2023-11-19T04:12:25;4.03;;;3.40;;
7158;SDS011;63175;52.374;13.132;2023-11-19T04:14:52;3.50;;;3.20;;
7158;SDS011;63175;52.374;13.132;2023-11-19T04:17:19;3.83;;;3.43;;
7158;SDS011;63175;52.374;13.132;2023-11-19T04:19:46;5.57;;;4.13;;
7158;SDS011;63175;52.374;13.132;2023-11-19T04:22:13;4.47;;;4.07;;
7158;SDS011;63175;52.374;13.132;2023-11-19T04:24:40;3.97;;;3.63;;
7158;SDS011;63175;52.374;13.132;2023-11-19T04:27:09;4.40;;;4.07;;
7158;SDS011;63175;52.374;13.132;2023-11-19T04:29:37;4.27;;;3.97;;
7158;SDS011;63175;52.374;13.132;2023-11-19T04:32:04;3.90;;;3.60;;
7158;SDS011;63175;52.374;13.132;2023-11-19T04:34:32;4.37;;;4.00;;
7158;SDS011;63175;52.374;13.132;2023-11-19T04:36:58;4.33;;;4.00;;
7158;SDS011;63175;52.374;13.132;2023-11-19T04:39:27;4.00;;;3.70;;
7158;SDS011;63175;52.374;13.132;2023-11-19T04:41:53;4.23;;;3.83;;
7158;SDS011;63175;52.374;13.132;2023-11-19T04:44:20;4.60;;;4.20;;
7158;SDS011;63175;52.374;13.132;2023-11-19T04:46:49;4.10;;;3.80;;
7158;SDS011;63175;52.374;13.132;2023-11-19T04:49:15;5.30;;;4.27;;
7158;SDS011;63175;52.374;13.132;2023-11-19T04:51:44;3.90;;;3.60;;
7158;SDS011;63175;52.374;13.132;2023-11-19T04:54:12;3.97;;;3.70;;
7158;SDS011;63175;52.374;13.132;2023-11-19T04:56:39;4.50;;;4.03;;
7158;SDS011;63175;52.374;13.132;2023-11-19T04:59:06;5.10;;;4.70;;
7158;SDS011;63175;52.374;13.132;2023-11-19T05:01:34;3.37;;;3.17;;
7158;SDS011;63175;52.374;13.132;2023-11-19T05:04:02;4.10;;;3.80;;
7158;SDS011;63175;52.374;13.132;2023-11-19T05:06:29;3.97;;;3.63;;
7158;SDS011;63175;52.374;13.132;2023-11-19T05:08:58;3.67;;;3.40;;
7158;SDS011;63175;52.374;13.132;2023-11-19T05:11:28;4.27;;;3.97;;
7158;SDS011;63175;52.374;13.132;2023-11-19T05:13:55;4.77;;;3.90;;
7158;SDS011;63175;52.374;13.132;2023-11-19T05:16:22;4.23;;;3.93;;
7158;SDS011;63175;52.374;13.132;2023-11-19T05:18:49;4.60;;;4.20;;
7158;SDS011;63175;52.374;13.132;2023-11-19T05:21:17;4.00;;;3.70;;
7158;SDS011;63175;52.374;13.132;2023-11-19T05:23:44;4.17;;;3.87;;
7158;SDS011;63175;52.374;13.132;2023-11-19T05:26:16;5.00;;;4.53;;
7158;SDS011;63175;52.374;13.132;2023-11-19T05:28:44;3.97;;;3.67;;
7158;SDS011;63175;52.374;13.132;2023-11-19T05:31:12;3.90;;;3.70;;
7158;SDS011;63175;52.374;13.132;2023-11-19T05:33:39;3.70;;;3.40;;
7158;SDS011;63175;52.374;13.132;2023-11-19T05:36:06;4.07;;;3.73;;
7158;SDS011;63175;52.374;13.132;2023-11-19T05:38:35;5.10;;;4.30;;
7158;SDS011;63175;52.374;13.132;2023-11-19T05:41:02;4.10;;;3.77;;
7158;SDS011;63175;52.374;13.132;2023-11-19T05:43:29;4.30;;;3.90;;
7158;SDS011;63175;52.374;13.132;2023-11-19T05:45:56;4.80;;;4.40;;
7158;SDS011;63175;52.374;13.132;2023-11-19T05:48:24;3.50;;;3.20;;
7158;SDS011;63175;52.374;13.132;2023-11-19T05:50:52;4.27;;;3.87;;
7158;SDS011;63175;52.374;13.132;2023-11-19T05:53:19;4.30;;;4.00;;
7158;SDS011;63175;52.374;13.132;2023-11-19T05:55:48;4.47;;;4.17;;
7158;SDS011;63175;52.374;13.132;2023-11-19T05:58:20;4.20;;;3.90;;
7158;SDS011;63175;52.374;13.132;2023-11-19T06:00:50;4.10;;;3.70;;
7158;SDS011;63175;52.374;13.132;2023-11-19T06:03:17;3.37;;;3.17;;
7158;SDS011;63175;52.374;13.132;2023-11-19T06:05:44;3.80;;;3.57;;
7158;SDS011;63175;52.374;13.132;2023-11-19T06:08:11;3.63;;;3.33;;
7158;SDS011;63175;52.374;13.132;2023-11-19T06:10:39;5.03;;;4.50;;
7158;SDS011;63175;52.374;13.132;2023-11-19T06:13:08;4.50;;;4.10;;
7158;SDS011;63175;52.374;13.132;2023-11-19T06:15:36;3.70;;;3.40;;
7158;SDS011;63175;52.374;13.132;2023-11-19T06:18:03;3.57;;;3.37;;
7158;SDS011;63175;52.374;13.132;2023-11-19T06:20:30;3.53;;;3.30;;
7158;SDS011;63175;52.374;13.132;2023-11-19T06:22:59;4.33;;;3.37;;
7158;SDS011;63175;52.374;13.132;2023-11-19T06:25:26;3.73;;;3.50;;
7158;SDS011;63175;52.374;13.132;2023-11-19T06:27:53;3.80;;;3.50;;
7158;SDS011;63175;52.374;13.132;2023-11-19T06:30:21;4.30;;;3.90;;
7158;SDS011;63175;52.374;13.132;2023-11-19T06:32:48;3.80;;;3.57;;
7158;SDS011;63175;52.374;13.132;2023-11-19T06:35:15;3.83;;;3.53;;
7158;SDS011;63175;52.374;13.132;2023-11-19T06:37:42;4.10;;;3.80;;
7158;SDS011;63175;52.374;13.132;2023-11-19T06:40:09;3.93;;;3.63;;
7158;SDS011;63175;52.374;13.132;2023-11-19T06:42:37;3.67;;;3.37;;
7158;SDS011;63175;52.374;13.132;2023-11-19T06:45:04;3.70;;;3.40;;
7158;SDS011;63175;52.374;13.132;2023-11-19T06:47:33;4.20;;;3.80;;
7158;SDS011;63175;52.374;13.132;2023-11-19T06:50:00;4.13;;;3.80;;
7158;SDS011;63175;52.374;13.132;2023-11-19T06:52:30;3.80;;;3.50;;
7158;SDS011;63175;52.374;13.132;2023-11-19T06:54:57;4.00;;;3.70;;
7158;SDS011;63175;52.374;13.132;2023-11-19T06:57:24;3.67;;;3.47;;
7158;SDS011;63175;52.374;13.132;2023-11-19T06:59:51;3.03;;;2.80;;
7158;SDS011;63175;52.374;13.132;2023-11-19T07:02:18;3.70;;;3.40;;
7158;SDS011;63175;52.374;13.132;2023-11-19T07:04:46;3.50;;;3.30;;
7158;SDS011;63175;52.374;13.132;2023-11-19T07:07:13;4.17;;;3.87;;
7158;SDS011;63175;52.374;13.132;2023-11-19T07:09:40;3.57;;;3.37;;
7158;SDS011;63175;52.374;13.132;2023-11-19T07:12:07;3.63;;;3.37;;
7158;SDS011;63175;52.374;13.132;2023-11-19T07:14:34;3.70;;;3.40;;
7158;SDS011;63175;52.374;13.132;2023-11-19T07:17:01;3.93;;;3.63;;
7158;SDS011;63175;52.374;13.132;2023-11-19T07:19:28;3.63;;;3.33;;
7158;SDS011;63175;52.374;13.132;2023-11-19T07:21:57;3.20;;;2.77;;
7158;SDS011;63175;52.374;13.132;2023-11-19T07:24:24;3.03;;;2.93;;
7158;SDS011;63175;52.374;13.132;2023-11-19T07:26:53;3.40;;;3.20;;
7158;SDS011;63175;52.374;13.132;2023-11-19T07:29:20;2.93;;;2.73;;
7158;SDS011;63175;52.374;13.132;2023-11-19T07:31:48;3.27;;;3.07;;
7158;SDS011;63175;52.374;13.132;2023-11-19T07:34:15;2.80;;;2.60;;
7158;SDS011;63175;52.374;13.132;2023-11-19T07:36:42;3.17;;;2.97;;
7158;SDS011;63175;52.374;13.132;2023-11-19T07:39:10;2.53;;;2.40;;
7158;SDS011;63175;52.374;13.132;2023-11-19T07:41:37;2.70;;;2.50;;
7158;SDS011;63175;52.374;13.132;2023-11-19T07:44:04;2.53;;;2.40;;
7158;SDS011;63175;52.374;13.132;2023-11-19T07:46:31;2.83;;;2.63;;
7158;SDS011;63175;52.374;13.132;2023-11-19T07:48:58;2.40;;;2.30;;
7158;SDS011;63175;52.374;13.132;2023-11-19T07:51:25;2.67;;;2.47;;
7158;SDS011;63175;52.374;13.132;2023-11-19T07:53:51;2.63;;;2.47;;
7158;SDS011;63175;52.374;13.132;2023-11-19T07:56:20;2.30;;;2.20;;
7158;SDS011;63175;52.374;13.132;2023-11-19T07:58:46;2.60;;;2.50;;
7158;SDS011;63175;52.374;13.132;2023-11-19T08:01:15;2.57;;;2.47;;
7158;SDS011;63175;52.374;13.132;2023-11-19T08:03:42;2.50;;;2.30;;
7158;SDS011;63175;52.374;13.132;2023-11-19T08:06:09;1.80;;;1.70;;
7158;SDS011;63175;52.374;13.132;2023-11-19T08:08:36;2.07;;;1.97;;
7158;SDS011;63175;52.374;13.132;2023-11-19T08:11:04;2.50;;;2.40;;
7158;SDS011;63175;52.374;13.132;2023-11-19T08:13:32;2.67;;;2.47;;
7158;SDS011;63175;52.374;13.132;2023-11-19T08:15:59;2.47;;;2.33;;
7158;SDS011;63175;52.374;13.132;2023-11-19T08:18:26;2.30;;;2.20;;
7158;SDS011;63175;52.374;13.132;2023-11-19T08:20:53;3.30;;;3.10;;
7158;SDS011;63175;52.374;13.132;2023-11-19T08:23:21;4.00;;;3.70;;
7158;SDS011;63175;52.374;13.132;2023-11-19T08:25:50;3.00;;;2.80;;
7158;SDS011;63175;52.374;13.132;2023-11-19T08:28:17;2.60;;;2.40;;
7158;SDS011;63175;52.374;13.132;2023-11-19T08:30:45;2.40;;;2.30;;
7158;SDS011;63175;52.374;13.132;2023-11-19T08:33:12;2.97;;;2.80;;
7158;SDS011;63175;52.374;13.132;2023-11-19T08:35:40;2.70;;;2.50;;
7158;SDS011;63175;52.374;13.132;2023-11-19T08:38:07;2.77;;;2.67;;
7158;SDS011;63175;52.374;13.132;2023-11-19T08:40:33;2.60;;;2.40;;
7158;SDS011;63175;52.374;13.132;2023-11-19T08:43:00;2.40;;;2.30;;
7158;SDS011;63175;52.374;13.132;2023-11-19T08:45:27;3.00;;;2.70;;
7158;SDS011;63175;52.374;13.132;2023-11-19T08:47:55;3.10;;;2.80;;
7158;SDS011;63175;52.374;13.132;2023-11-19T08:50:22;2.60;;;2.50;;
7158;SDS011;63175;52.374;13.132;2023-11-19T08:52:50;2.40;;;2.30;;
7158;SDS011;63175;52.374;13.132;2023-11-19T08:55:16;2.30;;;2.20;;
7158;SDS011;63175;52.374;13.132;2023-11-19T08:57:43;1.87;;;1.77;;
7158;SDS011;63175;52.374;13.132;2023-11-19T09:00:10;2.70;;;2.47;;
7158;SDS011;63175;52.374;13.132;2023-11-19T09:02:39;4.60;;;2.47;;
7158;SDS011;63175;52.374;13.132;2023-11-19T09:05:07;1.17;;;1.17;;
7158;SDS011;63175;52.374;13.132;2023-11-19T09:07:34;1.30;;;1.30;;
7158;SDS011;63175;52.374;13.132;2023-11-19T09:10:01;1.70;;;1.60;;
7158;SDS011;63175;52.374;13.132;2023-11-19T09:12:30;1.63;;;1.30;;
7158;SDS011;63175;52.374;13.132;2023-11-19T09:14:57;1.20;;;1.07;;
7158;SDS011;63175;52.374;13.132;2023-11-19T09:17:24;1.23;;;1.13;;
7158;SDS011;63175;52.374;13.132;2023-11-19T09:19:50;4.03;;;0.80;;
7158;SDS011;63175;52.374;13.132;2023-11-19T09:22:19;1.20;;;1.20;;
7158;SDS011;63175;52.374;13.132;2023-11-19T09:24:46;3.50;;;1.00;;
7158;SDS011;63175;52.374;13.132;2023-11-19T09:27:13;0.77;;;0.77;;
7158;SDS011;63175;52.374;13.132;2023-11-19T09:29:40;1.00;;;0.90;;
7158;SDS011;63175;52.374;13.132;2023-11-19T09:32:08;0.80;;;0.80;;
7158;SDS011;63175;52.374;13.132;2023-11-19T09:34:34;0.90;;;0.90;;
7158;SDS011;63175;52.374;13.132;2023-11-19T09:37:01;1.03;;;0.93;;
7158;SDS011;63175;52.374;13.132;2023-11-19T09:39:30;1.17;;;0.70;;
7158;SDS011;63175;52.374;13.132;2023-11-19T09:41:57;1.47;;;0.50;;
7158;SDS011;63175;52.374;13.132;2023-11-19T09:44:24;7.60;;;1.10;;
7158;SDS011;63175;52.374;13.132;2023-11-19T09:46:51;0.63;;;0.60;;
7158;SDS011;63175;52.374;13.132;2023-11-19T09:49:19;5.30;;;0.60;;
7158;SDS011;63175;52.374;13.132;2023-11-19T09:51:48;1.17;;;0.77;;
7158;SDS011;63175;52.374;13.132;2023-11-19T09:54:15;1.70;;;0.70;;
7158;SDS011;63175;52.374;13.132;2023-11-19T09:56:44;1.67;;;0.67;;
7158;SDS011;63175;52.374;13.132;2023-11-19T09:59:12;3.87;;;1.20;;
7158;SDS011;63175;52.374;13.132;2023-11-19T10:01:39;1.10;;;0.93;;
7158;SDS011;63175;52.374;13.132;2023-11-19T10:04:06;1.03;;;0.70;;
7158;SDS011;63175;52.374;13.132;2023-11-19T10:06:33;1.43;;;0.80;;
7158;SDS011;63175;52.374;13.132;2023-11-19T10:09:00;2.00;;;0.90;;
7158;SDS011;63175;52.374;13.132;2023-11-19T10:11:30;1.30;;;1.00;;
7158;SDS011;63175;52.374;13.132;2023-11-19T10:13:58;2.70;;;1.30;;
7158;SDS011;63175;52.374;13.132;2023-11-19T10:16:28;1.00;;;0.90;;
7158;SDS011;63175;52.374;13.132;2023-11-19T10:18:56;2.87;;;1.33;;
7158;SDS011;63175;52.374;13.132;2023-11-19T10:21:23;1.73;;;1.00;;
7158;SDS011;63175;52.374;13.132;2023-11-19T10:23:53;3.63;;;1.20;;
7158;SDS011;63175;52.374;13.132;2023-11-19T10:26:22;5.03;;;1.20;;
7158;SDS011;63175;52.374;13.132;2023-11-19T10:28:49;1.83;;;1.30;;
7158;SDS011;63175;52.374;13.132;2023-11-19T10:31:18;2.90;;;1.50;;
7158;SDS011;63175;52.374;13.132;2023-11-19T10:33:49;2.30;;;1.00;;
7158;SDS011;63175;52.374;13.132;2023-11-19T10:36:16;2.00;;;1.00;;
7158;SDS011;63175;52.374;13.132;2023-11-19T10:38:51;5.23;;;1.30;;
7158;SDS011;63175;52.374;13.132;2023-11-19T10:41:26;4.30;;;1.40;;
7158;SDS011;63175;52.374;13.132;2023-11-19T10:43:53;5.53;;;1.10;;
7158;SDS011;63175;52.374;13.132;2023-11-19T10:46:21;5.13;;;1.23;;
7158;SDS011;63175;52.374;13.132;2023-11-19T10:48:48;9.93;;;1.77;;
7158;SDS011;63175;52.374;13.132;2023-11-19T10:51:17;4.27;;;1.20;;
7158;SDS011;63175;52.374;13.132;2023-11-19T10:53:47;6.17;;;1.60;;
7158;SDS011;63175;52.374;13.132;2023-11-19T10:56:16;3.90;;;1.63;;
7158;SDS011;63175;52.374;13.132;2023-11-19T10:58:44;5.20;;;1.90;;
7158;SDS011;63175;52.374;13.132;2023-11-19T11:01:13;8.83;;;2.10;;
7158;SDS011;63175;52.374;13.132;2023-11-19T11:03:44;7.50;;;1.50;;
7158;SDS011;63175;52.374;13.132;2023-11-19T11:06:12;8.10;;;2.70;;
7158;SDS011;63175;52.374;13.132;2023-11-19T11:08:39;8.10;;;1.57;;
7158;SDS011;63175;52.374;13.132;2023-11-19T11:11:07;9.30;;;2.10;;
7158;SDS011;63175;52.374;13.132;2023-11-19T11:13:35;9.93;;;2.13;;
7158;SDS011;63175;52.374;13.132;2023-11-19T11:16:06;7.80;;;1.97;;
7158;SDS011;63175;52.374;13.132;2023-11-19T11:18:34;9.90;;;2.43;;
7158;SDS011;63175;52.374;13.132;2023-11-19T11:21:03;7.70;;;2.10;;
7158;SDS011;63175;52.374;13.132;2023-11-19T11:26:41;4.27;;;2.10;;
7158;SDS011;63175;52.374;13.132;2023-11-19T11:29:20;6.33;;;1.53;;
7158;SDS011;63175;52.374;13.132;2023-11-19T11:31:56;7.70;;;2.30;;
7158;SDS011;63175;52.374;13.132;2023-11-19T11:34:48;6.20;;;1.70;;
7158;SDS011;63175;52.374;13.132;2023-11-19T11:37:28;7.83;;;2.60;;
7158;SDS011;63175;52.374;13.132;2023-11-19T11:39:58;3.27;;;1.70;;
7158;SDS011;63175;52.374;13.132;2023-11-19T11:42:30;6.07;;;2.07;;
7158;SDS011;63175;52.374;13.132;2023-11-19T11:45:01;12.90;;;2.87;;
7158;SDS011;63175;52.374;13.132;2023-11-19T11:50:47;11.27;;;2.80;;
7158;SDS011;63175;52.374;13.132;2023-11-19T11:53:24;6.07;;;2.33;;
7158;SDS011;63175;52.374;13.132;2023-11-19T11:55:52;3.40;;;1.63;;
7158;SDS011;63175;52.374;13.132;2023-11-19T11:58:21;9.97;;;2.30;;
7158;SDS011;63175;52.374;13.132;2023-11-19T12:00:52;4.33;;;1.80;;
7158;SDS011;63175;52.374;13.132;2023-11-19T12:03:20;6.63;;;2.50;;
7158;SDS011;63175;52.374;13.132;2023-11-19T12:05:47;10.93;;;2.70;;
7158;SDS011;63175;52.374;13.132;2023-11-19T12:08:15;7.53;;;3.67;;
7158;SDS011;63175;52.374;13.132;2023-11-19T12:10:47;5.20;;;2.50;;
7158;SDS011;63175;52.374;13.132;2023-11-19T12:13:15;6.70;;;2.37;;
7158;SDS011;63175;52.374;13.132;2023-11-19T12:18:38;7.70;;;2.20;;
7158;SDS011;63175;52.374;13.132;2023-11-19T12:21:07;10.43;;;2.90;;
7158;SDS011;63175;52.374;13.132;2023-11-19T12:23:35;13.13;;;3.27;;
7158;SDS011;63175;52.374;13.132;2023-11-19T12:26:33;7.23;;;2.40;;
7158;SDS011;63175;52.374;13.132;2023-11-19T12:29:01;11.17;;;3.40;;
7158;SDS011;63175;52.374;13.132;2023-11-19T12:31:31;7.93;;;2.40;;
7158;SDS011;63175;52.374;13.132;2023-11-19T12:34:00;12.90;;;3.00;;
7158;SDS011;63175;52.374;13.132;2023-11-19T12:36:31;12.27;;;2.40;;
7158;SDS011;63175;52.374;13.132;2023-11-19T12:38:58;16.27;;;3.70;;
7158;SDS011;63175;52.374;13.132;2023-11-19T12:41:25;13.23;;;3.60;;
7158;SDS011;63175;52.374;13.132;2023-11-19T12:43:54;10.73;;;3.03;;
7158;SDS011;63175;52.374;13.132;2023-11-19T12:46:20;8.17;;;3.10;;
7158;SDS011;63175;52.374;13.132;2023-11-19T12:48:48;25.40;;;3.80;;
7158;SDS011;63175;52.374;13.132;2023-11-19T12:51:16;13.03;;;2.80;;
7158;SDS011;63175;52.374;13.132;2023-11-19T12:53:47;13.10;;;3.50;;
7158;SDS011;63175;52.374;13.132;2023-11-19T12:56:16;26.97;;;3.90;;
7158;SDS011;63175;52.374;13.132;2023-11-19T12:58:43;9.67;;;3.00;;
7158;SDS011;63175;52.374;13.132;2023-11-19T13:01:15;14.27;;;2.90;;
7158;SDS011;63175;52.374;13.132;2023-11-19T13:03:44;16.97;;;3.70;;
7158;SDS011;63175;52.374;13.132;2023-11-19T13:06:12;13.20;;;3.50;;
7158;SDS011;63175;52.374;13.132;2023-11-19T13:08:41;11.30;;;3.27;;
7158;SDS011;63175;52.374;13.132;2023-11-19T13:11:10;16.10;;;4.60;;
7158;SDS011;63175;52.374;13.132;2023-11-19T13:13:56;15.40;;;3.10;;
7158;SDS011;63175;52.374;13.132;2023-11-19T13:16:26;11.03;;;3.20;;
7158;SDS011;63175;52.374;13.132;2023-11-19T13:18:53;11.67;;;4.07;;
7158;SDS011;63175;52.374;13.132;2023-11-19T13:21:20;10.67;;;2.83;;
7158;SDS011;63175;52.374;13.132;2023-11-19T13:23:47;8.63;;;3.20;;
7158;SDS011;63175;52.374;13.132;2023-11-19T13:26:15;9.67;;;3.50;;
7158;SDS011;63175;52.374;13.132;2023-11-19T13:28:42;12.37;;;3.87;;
7158;SDS011;63175;52.374;13.132;2023-11-19T13:31:09;14.03;;;3.13;;
7158;SDS011;63175;52.374;13.132;2023-11-19T13:33:37;18.00;;;4.13;;
7158;SDS011;63175;52.374;13.132;2023-11-19T13:36:04;10.90;;;2.70;;
7158;SDS011;63175;52.374;13.132;2023-11-19T13:38:32;9.53;;;3.50;;
7158;SDS011;63175;52.374;13.132;2023-11-19T13:41:00;7.47;;;3.13;;
7158;SDS011;63175;52.374;13.132;2023-11-19T13:43:27;17.43;;;4.20;;
7158;SDS011;63175;52.374;13.132;2023-11-19T13:45:54;16.33;;;3.77;;
7158;SDS011;63175;52.374;13.132;2023-11-19T13:48:21;12.47;;;3.43;;
7158;SDS011;63175;52.374;13.132;2023-11-19T13:50:49;15.20;;;3.90;;
7158;SDS011;63175;52.374;13.132;2023-11-19T13:53:16;11.37;;;3.47;;
7158;SDS011;63175;52.374;13.132;2023-11-19T13:55:43;17.33;;;3.27;;
7158;SDS011;63175;52.374;13.132;2023-11-19T13:58:10;15.37;;;3.77;;
7158;SDS011;63175;52.374;13.132;2023-11-19T14:00:37;15.63;;;3.90;;
7158;SDS011;63175;52.374;13.132;2023-11-19T14:03:04;12.50;;;3.27;;
7158;SDS011;63175;52.374;13.132;2023-11-19T14:05:31;17.80;;;3.47;;
7158;SDS011;63175;52.374;13.132;2023-11-19T14:07:59;20.83;;;4.00;;
7158;SDS011;63175;52.374;13.132;2023-11-19T14:10:26;16.23;;;3.73;;
7158;SDS011;63175;52.374;13.132;2023-11-19T14:12:53;28.63;;;3.70;;
7158;SDS011;63175;52.374;13.132;2023-11-19T14:15:20;16.80;;;3.93;;
7158;SDS011;63175;52.374;13.132;2023-11-19T14:17:47;12.43;;;3.47;;
7158;SDS011;63175;52.374;13.132;2023-11-19T14:20:14;14.20;;;3.77;;
7158;SDS011;63175;52.374;13.132;2023-11-19T14:22:42;16.63;;;4.67;;
7158;SDS011;63175;52.374;13.132;2023-11-19T14:25:11;16.60;;;3.90;;
7158;SDS011;63175;52.374;13.132;2023-11-19T14:27:38;18.57;;;4.13;;
7158;SDS011;63175;52.374;13.132;2023-11-19T14:30:06;12.77;;;3.30;;
7158;SDS011;63175;52.374;13.132;2023-11-19T14:32:35;16.20;;;3.80;;
7158;SDS011;63175;52.374;13.132;2023-11-19T14:35:02;17.10;;;3.43;;
7158;SDS011;63175;52.374;13.132;2023-11-19T14:37:29;14.50;;;3.53;;
7158;SDS011;63175;52.374;13.132;2023-11-19T14:39:56;18.87;;;4.07;;
7158;SDS011;63175;52.374;13.132;2023-11-19T14:42:25;12.93;;;3.70;;
7158;SDS011;63175;52.374;13.132;2023-11-19T14:44:52;8.80;;;2.80;;
7158;SDS011;63175;52.374;13.132;2023-11-19T14:47:20;8.60;;;2.63;;
7158;SDS011;63175;52.374;13.132;2023-11-19T14:49:47;12.50;;;3.30;;
7158;SDS011;63175;52.374;13.132;2023-11-19T14:52:14;14.33;;;4.00;;
7158;SDS011;63175;52.374;13.132;2023-11-19T14:54:41;15.70;;;3.00;;
7158;SDS011;63175;52.374;13.132;2023-11-19T14:57:08;9.33;;;2.70;;
7158;SDS011;63175;52.374;13.132;2023-11-19T14:59:37;13.10;;;3.00;;